Irondale, Missouri
Current Conditions -  °F | °C
As of 12:35 PM on Thursday 30 Oct 2014 (Local Time) from KFAM Reporting Station
Few Clouds Few Clouds  
Wind Chill: 61°   Ceiling: Unl
Heat Index: 61°   Visibility: 10mi
Dew Point: 37°   Wind: 12mph
Humidity: 42%   Direction: 180°S
Pressure: 30.11"   Gusts: 16mph
Location:  37.83°N, 90.68°W
Report Text: KFAM 301735Z AUTO 18010G14KT 10SM FEW095 16/03 A3011 RMK AO1
Loading
Personal Weather Stations






























Interactive Weather Map
Tropical Storm Tracking
New forecast layout! Learn more

10-Day Weather Forecast

Advertisements
Track Severe Weather on mobile